sensor_id;sensor_type;location;lat;lon;timestamp;temperature;humidity
43627;DHT22;29217;52.586;13.442;2023-09-30T00:00:14;16.80;99.90
43627;DHT22;29217;52.586;13.442;2023-09-30T00:02:40;16.80;99.90
43627;DHT22;29217;52.586;13.442;2023-09-30T00:05:06;16.80;99.90
43627;DHT22;29217;52.586;13.442;2023-09-30T00:07:32;16.80;99.90
43627;DHT22;29217;52.586;13.442;2023-09-30T00:09:57;16.80;99.90
43627;DHT22;29217;52.586;13.442;2023-09-30T00:12:23;16.70;99.90
43627;DHT22;29217;52.586;13.442;2023-09-30T00:14:48;16.70;99.90
43627;DHT22;29217;52.586;13.442;2023-09-30T00:17:14;16.60;99.90
43627;DHT22;29217;52.586;13.442;2023-09-30T00:19:40;16.70;99.90
43627;DHT22;29217;52.586;13.442;2023-09-30T00:22:06;16.70;99.90
43627;DHT22;29217;52.586;13.442;2023-09-30T00:24:32;16.60;99.90
43627;DHT22;29217;52.586;13.442;2023-09-30T00:26:57;16.50;99.90
43627;DHT22;29217;52.586;13.442;2023-09-30T00:29:23;16.40;99.90
43627;DHT22;29217;52.586;13.442;2023-09-30T00:31:48;16.30;99.90
43627;DHT22;29217;52.586;13.442;2023-09-30T00:34:14;16.20;99.90
43627;DHT22;29217;52.586;13.442;2023-09-30T00:36:40;16.20;99.90
43627;DHT22;29217;52.586;13.442;2023-09-30T00:39:07;16.10;99.90
43627;DHT22;29217;52.586;13.442;2023-09-30T00:41:33;15.90;99.90
43627;DHT22;29217;52.586;13.442;2023-09-30T00:43:59;15.80;99.90
43627;DHT22;29217;52.586;13.442;2023-09-30T00:46:37;15.80;99.90
43627;DHT22;29217;52.586;13.442;2023-09-30T00:49:03;15.60;99.90
43627;DHT22;29217;52.586;13.442;2023-09-30T00:51:29;15.60;99.90
43627;DHT22;29217;52.586;13.442;2023-09-30T00:53:59;15.50;99.90
43627;DHT22;29217;52.586;13.442;2023-09-30T00:56:27;15.50;99.90
43627;DHT22;29217;52.586;13.442;2023-09-30T00:58:53;15.30;99.90
43627;DHT22;29217;52.586;13.442;2023-09-30T01:01:20;15.30;99.90
43627;DHT22;29217;52.586;13.442;2023-09-30T01:03:46;15.20;99.90
43627;DHT22;29217;52.586;13.442;2023-09-30T01:06:12;15.20;99.90
43627;DHT22;29217;52.586;13.442;2023-09-30T01:08:38;15.10;99.90
43627;DHT22;29217;52.586;13.442;2023-09-30T01:11:05;15.00;99.90
43627;DHT22;29217;52.586;13.442;2023-09-30T01:13:37;14.90;99.90
43627;DHT22;29217;52.586;13.442;2023-09-30T01:16:08;14.90;99.90
43627;DHT22;29217;52.586;13.442;2023-09-30T01:18:39;14.90;99.90
43627;DHT22;29217;52.586;13.442;2023-09-30T01:21:08;14.90;99.90
43627;DHT22;29217;52.586;13.442;2023-09-30T01:23:35;14.90;99.90
43627;DHT22;29217;52.586;13.442;2023-09-30T01:26:11;14.80;99.90
43627;DHT22;29217;52.586;13.442;2023-09-30T01:28:40;14.70;99.90
43627;DHT22;29217;52.586;13.442;2023-09-30T01:31:06;14.70;99.90
43627;DHT22;29217;52.586;13.442;2023-09-30T01:33:32;14.60;99.90
43627;DHT22;29217;52.586;13.442;2023-09-30T01:35:59;14.60;99.90
43627;DHT22;29217;52.586;13.442;2023-09-30T01:38:27;14.50;99.90
43627;DHT22;29217;52.586;13.442;2023-09-30T01:40:53;14.40;99.90
43627;DHT22;29217;52.586;13.442;2023-09-30T01:43:19;14.40;99.90
43627;DHT22;29217;52.586;13.442;2023-09-30T01:45:45;14.30;99.90
43627;DHT22;29217;52.586;13.442;2023-09-30T01:50:38;14.20;99.90
43627;DHT22;29217;52.586;13.442;2023-09-30T01:53:04;14.10;99.90
43627;DHT22;29217;52.586;13.442;2023-09-30T01:55:33;14.00;99.90
43627;DHT22;29217;52.586;13.442;2023-09-30T01:57:59;14.00;99.90
43627;DHT22;29217;52.586;13.442;2023-09-30T02:00:25;13.90;99.90
43627;DHT22;29217;52.586;13.442;2023-09-30T02:02:54;13.80;99.90
43627;DHT22;29217;52.586;13.442;2023-09-30T02:05:19;13.90;99.90
43627;DHT22;29217;52.586;13.442;2023-09-30T02:07:45;13.90;99.90
43627;DHT22;29217;52.586;13.442;2023-09-30T02:10:10;13.90;99.90
43627;DHT22;29217;52.586;13.442;2023-09-30T02:12:37;13.90;99.90
43627;DHT22;29217;52.586;13.442;2023-09-30T02:15:03;13.90;99.90
43627;DHT22;29217;52.586;13.442;2023-09-30T02:17:29;13.90;99.90
43627;DHT22;29217;52.586;13.442;2023-09-30T02:19:55;13.70;99.90
43627;DHT22;29217;52.586;13.442;2023-09-30T02:22:20;13.70;99.90
43627;DHT22;29217;52.586;13.442;2023-09-30T02:24:46;13.80;99.90
43627;DHT22;29217;52.586;13.442;2023-09-30T02:27:11;13.70;99.90
43627;DHT22;29217;52.586;13.442;2023-09-30T02:29:37;13.70;99.90
43627;DHT22;29217;52.586;13.442;2023-09-30T02:32:03;13.70;99.90
43627;DHT22;29217;52.586;13.442;2023-09-30T02:34:30;13.70;99.90
43627;DHT22;29217;52.586;13.442;2023-09-30T02:36:56;13.70;99.90
43627;DHT22;29217;52.586;13.442;2023-09-30T02:39:21;13.70;99.90
43627;DHT22;29217;52.586;13.442;2023-09-30T02:41:47;13.70;99.90
43627;DHT22;29217;52.586;13.442;2023-09-30T02:44:15;13.70;99.90
43627;DHT22;29217;52.586;13.442;2023-09-30T02:46:40;13.70;99.90
43627;DHT22;29217;52.586;13.442;2023-09-30T02:49:06;13.70;99.90
43627;DHT22;29217;52.586;13.442;2023-09-30T02:51:32;13.70;99.90
43627;DHT22;29217;52.586;13.442;2023-09-30T02:53:58;13.70;99.90
43627;DHT22;29217;52.586;13.442;2023-09-30T02:56:23;13.70;99.90
43627;DHT22;29217;52.586;13.442;2023-09-30T02:58:50;13.70;99.90
43627;DHT22;29217;52.586;13.442;2023-09-30T03:01:17;13.70;99.90
43627;DHT22;29217;52.586;13.442;2023-09-30T03:03:43;13.70;99.90
43627;DHT22;29217;52.586;13.442;2023-09-30T03:06:11;13.70;99.90
43627;DHT22;29217;52.586;13.442;2023-09-30T03:08:37;13.60;99.90
43627;DHT22;29217;52.586;13.442;2023-09-30T03:11:03;13.60;99.90
43627;DHT22;29217;52.586;13.442;2023-09-30T03:13:30;13.60;99.90
43627;DHT22;29217;52.586;13.442;2023-09-30T03:15:56;13.60;99.90
43627;DHT22;29217;52.586;13.442;2023-09-30T03:18:22;13.60;99.90
43627;DHT22;29217;52.586;13.442;2023-09-30T03:20:58;13.50;99.90
43627;DHT22;29217;52.586;13.442;2023-09-30T03:23:26;13.50;99.90
43627;DHT22;29217;52.586;13.442;2023-09-30T03:25:57;13.40;99.90
43627;DHT22;29217;52.586;13.442;2023-09-30T03:28:23;13.50;99.90
43627;DHT22;29217;52.586;13.442;2023-09-30T03:30:48;13.40;99.90
43627;DHT22;29217;52.586;13.442;2023-09-30T03:33:14;13.50;99.90
43627;DHT22;29217;52.586;13.442;2023-09-30T03:35:39;13.50;99.90
43627;DHT22;29217;52.586;13.442;2023-09-30T03:38:05;13.50;99.90
43627;DHT22;29217;52.586;13.442;2023-09-30T03:40:32;13.40;99.90
43627;DHT22;29217;52.586;13.442;2023-09-30T03:42:59;13.40;99.90
43627;DHT22;29217;52.586;13.442;2023-09-30T03:45:24;13.40;99.90
43627;DHT22;29217;52.586;13.442;2023-09-30T03:47:50;13.30;99.90
43627;DHT22;29217;52.586;13.442;2023-09-30T03:50:17;13.30;99.90
43627;DHT22;29217;52.586;13.442;2023-09-30T03:52:43;13.40;99.90
43627;DHT22;29217;52.586;13.442;2023-09-30T03:55:13;13.30;99.90
43627;DHT22;29217;52.586;13.442;2023-09-30T03:57:43;13.30;99.90
43627;DHT22;29217;52.586;13.442;2023-09-30T04:00:13;13.30;99.90
43627;DHT22;29217;52.586;13.442;2023-09-30T04:02:44;13.30;99.90
43627;DHT22;29217;52.586;13.442;2023-09-30T04:05:13;13.30;99.90
43627;DHT22;29217;52.586;13.442;2023-09-30T04:07:40;13.30;99.90
43627;DHT22;29217;52.586;13.442;2023-09-30T04:10:08;13.30;99.90
43627;DHT22;29217;52.586;13.442;2023-09-30T04:12:33;13.20;99.90
43627;DHT22;29217;52.586;13.442;2023-09-30T04:15:00;13.20;99.90
43627;DHT22;29217;52.586;13.442;2023-09-30T04:17:25;13.20;99.90
43627;DHT22;29217;52.586;13.442;2023-09-30T04:19:53;13.20;99.90
43627;DHT22;29217;52.586;13.442;2023-09-30T04:22:18;13.20;99.90
43627;DHT22;29217;52.586;13.442;2023-09-30T04:24:47;13.20;99.90
43627;DHT22;29217;52.586;13.442;2023-09-30T04:27:14;13.10;99.90
43627;DHT22;29217;52.586;13.442;2023-09-30T04:29:40;13.10;99.90
43627;DHT22;29217;52.586;13.442;2023-09-30T04:32:06;13.10;99.90
43627;DHT22;29217;52.586;13.442;2023-09-30T04:34:32;13.10;99.90
43627;DHT22;29217;52.586;13.442;2023-09-30T04:36:58;13.00;99.90
43627;DHT22;29217;52.586;13.442;2023-09-30T04:39:25;13.00;99.90
43627;DHT22;29217;52.586;13.442;2023-09-30T04:41:50;13.10;99.90
43627;DHT22;29217;52.586;13.442;2023-09-30T04:44:16;13.00;99.90
43627;DHT22;29217;52.586;13.442;2023-09-30T04:46:41;13.00;99.90
43627;DHT22;29217;52.586;13.442;2023-09-30T04:49:14;13.00;99.90
43627;DHT22;29217;52.586;13.442;2023-09-30T04:51:40;13.00;99.90
43627;DHT22;29217;52.586;13.442;2023-09-30T04:54:06;12.90;99.90
43627;DHT22;29217;52.586;13.442;2023-09-30T04:56:35;13.00;99.90
43627;DHT22;29217;52.586;13.442;2023-09-30T04:59:02;12.90;99.90
43627;DHT22;29217;52.586;13.442;2023-09-30T05:01:29;12.90;99.90
43627;DHT22;29217;52.586;13.442;2023-09-30T05:03:55;12.90;99.90
43627;DHT22;29217;52.586;13.442;2023-09-30T05:06:20;12.90;99.90
43627;DHT22;29217;52.586;13.442;2023-09-30T05:08:47;12.90;99.90
43627;DHT22;29217;52.586;13.442;2023-09-30T05:11:15;12.80;99.90
43627;DHT22;29217;52.586;13.442;2023-09-30T05:13:41;12.80;99.90
43627;DHT22;29217;52.586;13.442;2023-09-30T05:16:06;12.80;99.90
43627;DHT22;29217;52.586;13.442;2023-09-30T05:18:35;12.90;99.90
43627;DHT22;29217;52.586;13.442;2023-09-30T05:21:00;12.80;99.90
43627;DHT22;29217;52.586;13.442;2023-09-30T05:23:26;12.80;99.90
43627;DHT22;29217;52.586;13.442;2023-09-30T05:25:52;12.90;99.90
43627;DHT22;29217;52.586;13.442;2023-09-30T05:28:20;12.90;99.90
43627;DHT22;29217;52.586;13.442;2023-09-30T05:30:46;12.90;99.90
43627;DHT22;29217;52.586;13.442;2023-09-30T05:33:12;12.80;99.90
43627;DHT22;29217;52.586;13.442;2023-09-30T05:35:40;12.80;99.90
43627;DHT22;29217;52.586;13.442;2023-09-30T05:38:07;12.80;99.90
43627;DHT22;29217;52.586;13.442;2023-09-30T05:40:33;12.80;99.90
43627;DHT22;29217;52.586;13.442;2023-09-30T05:42:59;12.80;99.90
43627;DHT22;29217;52.586;13.442;2023-09-30T05:45:27;12.90;99.90
43627;DHT22;29217;52.586;13.442;2023-09-30T05:47:53;12.90;99.90
43627;DHT22;29217;52.586;13.442;2023-09-30T05:50:20;12.90;99.90
43627;DHT22;29217;52.586;13.442;2023-09-30T05:52:51;13.00;99.90
43627;DHT22;29217;52.586;13.442;2023-09-30T05:55:17;13.00;99.90
43627;DHT22;29217;52.586;13.442;2023-09-30T05:57:49;13.00;99.90
43627;DHT22;29217;52.586;13.442;2023-09-30T06:00:15;13.00;99.90
43627;DHT22;29217;52.586;13.442;2023-09-30T06:02:51;13.10;99.90
43627;DHT22;29217;52.586;13.442;2023-09-30T06:05:17;13.20;99.90
43627;DHT22;29217;52.586;13.442;2023-09-30T06:07:45;13.20;99.90
43627;DHT22;29217;52.586;13.442;2023-09-30T06:10:11;13.30;99.90
43627;DHT22;29217;52.586;13.442;2023-09-30T06:12:38;13.30;99.90
43627;DHT22;29217;52.586;13.442;2023-09-30T06:15:03;13.40;99.90
43627;DHT22;29217;52.586;13.442;2023-09-30T06:17:31;13.50;99.90
43627;DHT22;29217;52.586;13.442;2023-09-30T06:19:58;13.50;99.90
43627;DHT22;29217;52.586;13.442;2023-09-30T06:22:32;13.60;99.90
43627;DHT22;29217;52.586;13.442;2023-09-30T06:24:58;13.60;99.90
43627;DHT22;29217;52.586;13.442;2023-09-30T06:27:23;13.60;99.90
43627;DHT22;29217;52.586;13.442;2023-09-30T06:29:49;13.70;99.90
43627;DHT22;29217;52.586;13.442;2023-09-30T06:32:15;13.70;99.90
43627;DHT22;29217;52.586;13.442;2023-09-30T06:34:40;13.70;99.90
43627;DHT22;29217;52.586;13.442;2023-09-30T06:37:06;13.70;99.90
43627;DHT22;29217;52.586;13.442;2023-09-30T06:39:32;13.70;99.90
43627;DHT22;29217;52.586;13.442;2023-09-30T06:41:57;13.70;99.90
43627;DHT22;29217;52.586;13.442;2023-09-30T06:44:23;13.60;99.90
43627;DHT22;29217;52.586;13.442;2023-09-30T06:46:51;13.60;99.90
43627;DHT22;29217;52.586;13.442;2023-09-30T06:49:16;13.70;99.90
43627;DHT22;29217;52.586;13.442;2023-09-30T06:51:42;13.60;99.90
43627;DHT22;29217;52.586;13.442;2023-09-30T06:54:08;13.70;99.90
43627;DHT22;29217;52.586;13.442;2023-09-30T06:56:34;13.80;99.90
43627;DHT22;29217;52.586;13.442;2023-09-30T06:59:01;13.90;99.90
43627;DHT22;29217;52.586;13.442;2023-09-30T07:01:26;14.00;99.90
43627;DHT22;29217;52.586;13.442;2023-09-30T07:03:52;14.10;99.90
43627;DHT22;29217;52.586;13.442;2023-09-30T07:06:24;14.20;99.90
43627;DHT22;29217;52.586;13.442;2023-09-30T07:08:50;14.30;99.90
43627;DHT22;29217;52.586;13.442;2023-09-30T07:11:16;14.30;99.90
43627;DHT22;29217;52.586;13.442;2023-09-30T07:13:42;14.30;99.90
43627;DHT22;29217;52.586;13.442;2023-09-30T07:16:07;14.40;99.90
43627;DHT22;29217;52.586;13.442;2023-09-30T07:18:33;14.40;99.90
43627;DHT22;29217;52.586;13.442;2023-09-30T07:20:59;14.50;99.90
43627;DHT22;29217;52.586;13.442;2023-09-30T07:23:24;14.50;99.90
43627;DHT22;29217;52.586;13.442;2023-09-30T07:25:50;14.60;99.90
43627;DHT22;29217;52.586;13.442;2023-09-30T07:28:15;14.70;99.90
43627;DHT22;29217;52.586;13.442;2023-09-30T07:30:42;14.70;99.90
43627;DHT22;29217;52.586;13.442;2023-09-30T07:33:08;14.70;99.90
43627;DHT22;29217;52.586;13.442;2023-09-30T07:35:34;14.70;99.90
43627;DHT22;29217;52.586;13.442;2023-09-30T07:37:59;14.80;99.90
43627;DHT22;29217;52.586;13.442;2023-09-30T07:40:25;14.80;99.90
43627;DHT22;29217;52.586;13.442;2023-09-30T07:42:51;14.80;99.90
43627;DHT22;29217;52.586;13.442;2023-09-30T07:45:16;14.80;99.90
43627;DHT22;29217;52.586;13.442;2023-09-30T07:47:44;14.90;99.90
43627;DHT22;29217;52.586;13.442;2023-09-30T07:50:12;14.90;99.90
43627;DHT22;29217;52.586;13.442;2023-09-30T07:52:38;14.80;99.90
43627;DHT22;29217;52.586;13.442;2023-09-30T07:55:09;14.80;99.90
43627;DHT22;29217;52.586;13.442;2023-09-30T07:57:35;14.90;99.90
43627;DHT22;29217;52.586;13.442;2023-09-30T08:00:01;14.90;99.90
43627;DHT22;29217;52.586;13.442;2023-09-30T08:02:28;14.80;99.90
43627;DHT22;29217;52.586;13.442;2023-09-30T08:04:59;14.80;99.90
43627;DHT22;29217;52.586;13.442;2023-09-30T08:07:25;14.70;99.90
43627;DHT22;29217;52.586;13.442;2023-09-30T08:09:51;14.70;99.90
43627;DHT22;29217;52.586;13.442;2023-09-30T08:12:16;14.80;99.90
43627;DHT22;29217;52.586;13.442;2023-09-30T08:14:42;14.80;99.90
43627;DHT22;29217;52.586;13.442;2023-09-30T08:17:10;14.80;99.90
43627;DHT22;29217;52.586;13.442;2023-09-30T08:19:36;14.80;99.90
43627;DHT22;29217;52.586;13.442;2023-09-30T08:22:02;14.80;99.90
43627;DHT22;29217;52.586;13.442;2023-09-30T08:24:29;14.90;99.90
43627;DHT22;29217;52.586;13.442;2023-09-30T08:26:55;14.90;99.90
43627;DHT22;29217;52.586;13.442;2023-09-30T08:29:22;15.00;99.90
43627;DHT22;29217;52.586;13.442;2023-09-30T08:31:47;15.10;99.90
43627;DHT22;29217;52.586;13.442;2023-09-30T08:34:14;15.20;99.90
43627;DHT22;29217;52.586;13.442;2023-09-30T08:36:40;15.20;99.90
43627;DHT22;29217;52.586;13.442;2023-09-30T08:39:07;15.20;99.90
43627;DHT22;29217;52.586;13.442;2023-09-30T08:41:33;15.30;99.90
43627;DHT22;29217;52.586;13.442;2023-09-30T08:44:00;15.30;99.90
43627;DHT22;29217;52.586;13.442;2023-09-30T08:46:32;15.30;99.90
43627;DHT22;29217;52.586;13.442;2023-09-30T08:49:02;15.30;99.90
43627;DHT22;29217;52.586;13.442;2023-09-30T08:51:29;15.40;99.90
43627;DHT22;29217;52.586;13.442;2023-09-30T08:53:56;15.40;99.90
43627;DHT22;29217;52.586;13.442;2023-09-30T08:56:28;15.50;99.90
43627;DHT22;29217;52.586;13.442;2023-09-30T08:58:58;15.50;99.90
43627;DHT22;29217;52.586;13.442;2023-09-30T09:01:25;15.50;99.90
43627;DHT22;29217;52.586;13.442;2023-09-30T09:03:51;15.50;99.90
43627;DHT22;29217;52.586;13.442;2023-09-30T09:06:21;15.60;99.90
43627;DHT22;29217;52.586;13.442;2023-09-30T09:08:48;15.60;99.90
43627;DHT22;29217;52.586;13.442;2023-09-30T09:11:14;15.70;99.90
43627;DHT22;29217;52.586;13.442;2023-09-30T09:13:53;15.80;99.90
43627;DHT22;29217;52.586;13.442;2023-09-30T09:16:22;16.00;99.90
43627;DHT22;29217;52.586;13.442;2023-09-30T09:18:48;16.10;99.90
43627;DHT22;29217;52.586;13.442;2023-09-30T09:21:15;16.20;99.90
43627;DHT22;29217;52.586;13.442;2023-09-30T09:23:45;16.30;99.90
43627;DHT22;29217;52.586;13.442;2023-09-30T09:26:32;16.40;99.90
43627;DHT22;29217;52.586;13.442;2023-09-30T09:29:04;16.40;99.90
43627;DHT22;29217;52.586;13.442;2023-09-30T09:31:34;16.50;99.90
43627;DHT22;29217;52.586;13.442;2023-09-30T09:34:00;16.60;99.90
43627;DHT22;29217;52.586;13.442;2023-09-30T09:36:43;16.80;99.90
43627;DHT22;29217;52.586;13.442;2023-09-30T09:39:09;16.80;99.90
43627;DHT22;29217;52.586;13.442;2023-09-30T09:41:59;17.00;99.90
43627;DHT22;29217;52.586;13.442;2023-09-30T09:44:27;17.10;99.90
43627;DHT22;29217;52.586;13.442;2023-09-30T09:46:52;17.20;99.90
43627;DHT22;29217;52.586;13.442;2023-09-30T09:49:20;17.30;99.90
43627;DHT22;29217;52.586;13.442;2023-09-30T09:51:46;17.30;99.90
43627;DHT22;29217;52.586;13.442;2023-09-30T09:54:12;17.30;99.90
43627;DHT22;29217;52.586;13.442;2023-09-30T09:56:42;17.40;99.90
43627;DHT22;29217;52.586;13.442;2023-09-30T09:59:09;17.40;99.90
43627;DHT22;29217;52.586;13.442;2023-09-30T10:01:37;17.50;99.90
43627;DHT22;29217;52.586;13.442;2023-09-30T10:04:05;17.50;99.90
43627;DHT22;29217;52.586;13.442;2023-09-30T10:06:32;17.50;99.90
43627;DHT22;29217;52.586;13.442;2023-09-30T10:09:05;17.50;99.90
43627;DHT22;29217;52.586;13.442;2023-09-30T10:11:32;17.50;99.90
43627;DHT22;29217;52.586;13.442;2023-09-30T10:13:59;17.50;99.90
43627;DHT22;29217;52.586;13.442;2023-09-30T10:19:19;17.40;99.90
43627;DHT22;29217;52.586;13.442;2023-09-30T10:24:46;17.80;99.90
43627;DHT22;29217;52.586;13.442;2023-09-30T10:35:19;18.30;99.90
43627;DHT22;29217;52.586;13.442;2023-09-30T10:37:46;18.30;99.90
43627;DHT22;29217;52.586;13.442;2023-09-30T10:40:32;18.30;99.90
43627;DHT22;29217;52.586;13.442;2023-09-30T10:42:57;18.20;99.90
43627;DHT22;29217;52.586;13.442;2023-09-30T10:50:54;18.30;99.90
43627;DHT22;29217;52.586;13.442;2023-09-30T10:53:21;18.40;99.90
43627;DHT22;29217;52.586;13.442;2023-09-30T10:55:54;18.30;99.90
43627;DHT22;29217;52.586;13.442;2023-09-30T10:58:20;18.30;99.90
43627;DHT22;29217;52.586;13.442;2023-09-30T11:00:55;18.30;99.90
43627;DHT22;29217;52.586;13.442;2023-09-30T11:03:22;18.40;99.90
43627;DHT22;29217;52.586;13.442;2023-09-30T11:05:48;18.40;99.90
43627;DHT22;29217;52.586;13.442;2023-09-30T11:08:15;18.30;99.90
43627;DHT22;29217;52.586;13.442;2023-09-30T11:10:49;18.20;99.90
43627;DHT22;29217;52.586;13.442;2023-09-30T11:13:17;18.20;99.90
43627;DHT22;29217;52.586;13.442;2023-09-30T11:15:43;18.20;99.90
43627;DHT22;29217;52.586;13.442;2023-09-30T11:18:13;18.10;99.90
43627;DHT22;29217;52.586;13.442;2023-09-30T11:20:40;18.20;99.90
43627;DHT22;29217;52.586;13.442;2023-09-30T11:23:06;18.20;99.90
43627;DHT22;29217;52.586;13.442;2023-09-30T11:25:36;18.00;99.90
43627;DHT22;29217;52.586;13.442;2023-09-30T11:28:15;18.00;99.90
43627;DHT22;29217;52.586;13.442;2023-09-30T11:30:59;18.30;99.90
43627;DHT22;29217;52.586;13.442;2023-09-30T11:33:27;18.70;99.90
43627;DHT22;29217;52.586;13.442;2023-09-30T11:36:04;18.90;99.90
43627;DHT22;29217;52.586;13.442;2023-09-30T11:38:31;19.40;99.90
43627;DHT22;29217;52.586;13.442;2023-09-30T11:41:05;20.20;99.90
43627;DHT22;29217;52.586;13.442;2023-09-30T11:43:33;21.10;99.90
43627;DHT22;29217;52.586;13.442;2023-09-30T11:46:10;21.70;99.90
43627;DHT22;29217;52.586;13.442;2023-09-30T11:48:37;21.80;99.90
43627;DHT22;29217;52.586;13.442;2023-09-30T11:51:03;21.90;99.90
43627;DHT22;29217;52.586;13.442;2023-09-30T11:53:30;21.90;99.90
43627;DHT22;29217;52.586;13.442;2023-09-30T11:55:59;22.00;99.90
43627;DHT22;29217;52.586;13.442;2023-09-30T11:58:26;21.80;99.90
43627;DHT22;29217;52.586;13.442;2023-09-30T12:00:54;21.80;99.90
43627;DHT22;29217;52.586;13.442;2023-09-30T12:03:20;21.80;99.90
43627;DHT22;29217;52.586;13.442;2023-09-30T12:05:46;22.00;99.90
43627;DHT22;29217;52.586;13.442;2023-09-30T12:08:11;22.00;99.90
43627;DHT22;29217;52.586;13.442;2023-09-30T12:10:37;21.90;99.90
43627;DHT22;29217;52.586;13.442;2023-09-30T12:13:04;21.90;99.90
43627;DHT22;29217;52.586;13.442;2023-09-30T12:15:30;22.00;99.90
43627;DHT22;29217;52.586;13.442;2023-09-30T12:17:56;22.30;99.90
43627;DHT22;29217;52.586;13.442;2023-09-30T12:20:21;22.30;99.90
43627;DHT22;29217;52.586;13.442;2023-09-30T12:22:47;22.80;99.90
43627;DHT22;29217;52.586;13.442;2023-09-30T12:25:12;23.00;99.90
43627;DHT22;29217;52.586;13.442;2023-09-30T12:27:38;23.10;99.90
43627;DHT22;29217;52.586;13.442;2023-09-30T12:30:06;23.00;99.90
43627;DHT22;29217;52.586;13.442;2023-09-30T12:32:32;22.40;99.90
43627;DHT22;29217;52.586;13.442;2023-09-30T12:34:58;22.40;99.90
43627;DHT22;29217;52.586;13.442;2023-09-30T12:37:23;22.00;99.90
43627;DHT22;29217;52.586;13.442;2023-09-30T12:39:49;22.00;99.90
43627;DHT22;29217;52.586;13.442;2023-09-30T12:42:14;22.20;99.90
43627;DHT22;29217;52.586;13.442;2023-09-30T12:44:41;22.00;99.90
43627;DHT22;29217;52.586;13.442;2023-09-30T12:47:07;21.90;99.90
43627;DHT22;29217;52.586;13.442;2023-09-30T12:49:32;21.80;99.90
43627;DHT22;29217;52.586;13.442;2023-09-30T12:51:58;21.60;99.90
43627;DHT22;29217;52.586;13.442;2023-09-30T12:54:24;21.70;99.90
43627;DHT22;29217;52.586;13.442;2023-09-30T12:56:51;21.60;99.90
43627;DHT22;29217;52.586;13.442;2023-09-30T12:59:17;21.60;99.90
43627;DHT22;29217;52.586;13.442;2023-09-30T13:01:49;21.40;99.90
43627;DHT22;29217;52.586;13.442;2023-09-30T13:04:15;21.30;99.90
43627;DHT22;29217;52.586;13.442;2023-09-30T13:06:41;21.10;99.90
43627;DHT22;29217;52.586;13.442;2023-09-30T13:09:06;21.00;99.90
43627;DHT22;29217;52.586;13.442;2023-09-30T13:11:35;21.00;99.90
43627;DHT22;29217;52.586;13.442;2023-09-30T13:14:00;21.20;99.90
43627;DHT22;29217;52.586;13.442;2023-09-30T13:16:26;21.30;99.90
43627;DHT22;29217;52.586;13.442;2023-09-30T13:18:52;21.20;99.90
43627;DHT22;29217;52.586;13.442;2023-09-30T13:21:18;21.10;99.90
43627;DHT22;29217;52.586;13.442;2023-09-30T13:23:43;20.90;99.90
43627;DHT22;29217;52.586;13.442;2023-09-30T13:26:09;20.90;99.90
43627;DHT22;29217;52.586;13.442;2023-09-30T13:28:35;20.80;99.90
43627;DHT22;29217;52.586;13.442;2023-09-30T13:31:00;20.60;99.90
43627;DHT22;29217;52.586;13.442;2023-09-30T13:33:26;20.40;99.90
43627;DHT22;29217;52.586;13.442;2023-09-30T13:35:51;20.20;99.90
43627;DHT22;29217;52.586;13.442;2023-09-30T13:38:18;20.00;99.90
43627;DHT22;29217;52.586;13.442;2023-09-30T13:40:44;20.00;99.90
43627;DHT22;29217;52.586;13.442;2023-09-30T13:43:11;19.90;99.90
43627;DHT22;29217;52.586;13.442;2023-09-30T13:45:37;19.90;99.90
43627;DHT22;29217;52.586;13.442;2023-09-30T13:48:03;19.80;99.90
43627;DHT22;29217;52.586;13.442;2023-09-30T13:50:28;19.90;99.90
43627;DHT22;29217;52.586;13.442;2023-09-30T13:52:54;20.00;99.90
43627;DHT22;29217;52.586;13.442;2023-09-30T13:55:19;20.10;99.90
43627;DHT22;29217;52.586;13.442;2023-09-30T13:57:45;20.20;99.90
43627;DHT22;29217;52.586;13.442;2023-09-30T14:00:12;20.30;99.90
43627;DHT22;29217;52.586;13.442;2023-09-30T14:02:38;20.40;99.90
43627;DHT22;29217;52.586;13.442;2023-09-30T14:05:05;20.50;99.90
43627;DHT22;29217;52.586;13.442;2023-09-30T14:07:34;20.40;99.90
43627;DHT22;29217;52.586;13.442;2023-09-30T14:09:59;20.40;99.90
43627;DHT22;29217;52.586;13.442;2023-09-30T14:12:25;20.30;99.90
43627;DHT22;29217;52.586;13.442;2023-09-30T14:14:50;20.40;99.90
43627;DHT22;29217;52.586;13.442;2023-09-30T14:17:17;20.20;99.90
43627;DHT22;29217;52.586;13.442;2023-09-30T14:19:43;20.10;99.90
43627;DHT22;29217;52.586;13.442;2023-09-30T14:22:09;20.10;99.90
43627;DHT22;29217;52.586;13.442;2023-09-30T14:24:35;20.10;99.90
43627;DHT22;29217;52.586;13.442;2023-09-30T14:27:05;20.20;99.90
43627;DHT22;29217;52.586;13.442;2023-09-30T14:29:31;20.20;99.90
43627;DHT22;29217;52.586;13.442;2023-09-30T14:31:57;20.20;99.90
43627;DHT22;29217;52.586;13.442;2023-09-30T14:34:24;20.20;99.90
43627;DHT22;29217;52.586;13.442;2023-09-30T14:36:49;20.20;99.90
43627;DHT22;29217;52.586;13.442;2023-09-30T14:39:16;20.20;99.90
43627;DHT22;29217;52.586;13.442;2023-09-30T14:41:46;20.30;99.90
43627;DHT22;29217;52.586;13.442;2023-09-30T14:44:12;20.20;99.90
43627;DHT22;29217;52.586;13.442;2023-09-30T14:46:38;20.10;99.90
43627;DHT22;29217;52.586;13.442;2023-09-30T14:49:04;19.90;99.90
43627;DHT22;29217;52.586;13.442;2023-09-30T14:51:32;20.10;99.90
43627;DHT22;29217;52.586;13.442;2023-09-30T14:53:57;20.00;99.90
43627;DHT22;29217;52.586;13.442;2023-09-30T14:56:23;20.10;99.90
43627;DHT22;29217;52.586;13.442;2023-09-30T14:58:48;20.00;99.90
43627;DHT22;29217;52.586;13.442;2023-09-30T15:01:14;19.90;99.90
43627;DHT22;29217;52.586;13.442;2023-09-30T15:03:40;19.70;99.90
43627;DHT22;29217;52.586;13.442;2023-09-30T15:06:06;19.60;99.90
43627;DHT22;29217;52.586;13.442;2023-09-30T15:08:32;19.60;99.90
43627;DHT22;29217;52.586;13.442;2023-09-30T15:11:02;19.60;99.90
43627;DHT22;29217;52.586;13.442;2023-09-30T15:13:28;19.60;99.90
43627;DHT22;29217;52.586;13.442;2023-09-30T15:15:54;19.60;99.90
43627;DHT22;29217;52.586;13.442;2023-09-30T15:18:20;19.40;99.90
43627;DHT22;29217;52.586;13.442;2023-09-30T15:20:45;19.30;99.90
43627;DHT22;29217;52.586;13.442;2023-09-30T15:23:13;19.20;99.90
43627;DHT22;29217;52.586;13.442;2023-09-30T15:25:44;19.10;99.90
43627;DHT22;29217;52.586;13.442;2023-09-30T15:28:12;19.00;99.90
43627;DHT22;29217;52.586;13.442;2023-09-30T15:30:38;19.00;99.90
43627;DHT22;29217;52.586;13.442;2023-09-30T15:33:04;18.90;99.90
43627;DHT22;29217;52.586;13.442;2023-09-30T15:35:30;18.90;99.90